Time,TemperatureF,DewpointF,PressureIn,WindDirection,WindDirectionDegrees,WindSpeedMPH,WindSpeedGustMPH,Humidity,HourlyPrecipIn,Conditions,Clouds,dailyrainin,SoftwareType,DateUTC
2013-06-16 00:08:00,61.2,56.0,29.93,WNW,301,0.0,1.0,82,0.00,,,0.00,weatherlink.com 1.10,2013-06-16 04:08:00,
2013-06-16 00:23:00,60.8,56.0,29.94,WNW,301,0.0,0.0,84,0.00,,,0.00,weatherlink.com 1.10,2013-06-16 04:23:00,
2013-06-16 00:38:00,60.4,56.0,29.93,WNW,301,0.0,1.0,86,0.00,,,0.00,weatherlink.com 1.10,2013-06-16 04:38:00,
2013-06-16 00:53:00,60.2,56.0,29.93,WNW,301,0.0,0.0,87,0.00,,,0.00,weatherlink.com 1.10,2013-06-16 04:53:00,
2013-06-16 01:08:00,60.2,56.0,29.93,WNW,301,0.0,1.0,87,0.00,,,0.00,weatherlink.com 1.10,2013-06-16 05:08:00,
2013-06-16 01:23:00,60.0,57.0,29.93,WNW,301,0.0,0.0,88,0.00,,,0.00,weatherlink.com 1.10,2013-06-16 05:23:00,
2013-06-16 01:39:00,59.6,56.0,29.92,WNW,301,0.0,0.0,89,0.00,,,0.00,weatherlink.com 1.10,2013-06-16 05:39:00,
2013-06-16 01:54:00,59.5,56.0,29.92,WNW,301,0.0,2.0,89,0.00,,,0.00,weatherlink.com 1.10,2013-06-16 05:54:00,
2013-06-16 02:09:00,59.4,57.0,29.92,WNW,301,0.0,1.0,90,0.00,,,0.00,weatherlink.com 1.10,2013-06-16 06:09:00,
2013-06-16 02:24:00,59.4,57.0,29.92,WNW,301,0.0,2.0,90,0.00,,,0.00,weatherlink.com 1.10,2013-06-16 06:24:00,
2013-06-16 02:39:00,59.3,57.0,29.93,WNW,301,0.0,2.0,91,0.00,,,0.00,weatherlink.com 1.10,2013-06-16 06:39:00,
2013-06-16 02:54:00,59.0,56.0,29.93,WNW,301,0.0,0.0,91,0.00,,,0.00,weatherlink.com 1.10,2013-06-16 06:54:00,
2013-06-16 03:09:00,58.5,56.0,29.93,WNW,301,0.0,0.0,91,0.00,,,0.00,weatherlink.com 1.10,2013-06-16 07:09:00,
2013-06-16 03:24:00,58.0,55.0,29.93,WNW,301,0.0,0.0,91,0.00,,,0.00,weatherlink.com 1.10,2013-06-16 07:24:00,
2013-06-16 03:39:00,57.4,55.0,29.93,WNW,301,0.0,0.0,91,0.00,,,0.00,weatherlink.com 1.10,2013-06-16 07:39:00,
2013-06-16 03:54:00,56.9,55.0,29.93,WNW,301,0.0,0.0,92,0.00,,,0.00,weatherlink.com 1.10,2013-06-16 07:54:00,
2013-06-16 04:09:00,56.6,55.0,29.93,WNW,301,0.0,2.0,93,0.00,,,0.00,weatherlink.com 1.10,2013-06-16 08:09:00,
2013-06-16 04:24:00,57.6,56.0,29.92,WNW,284,0.0,2.0,95,0.00,,,0.00,weatherlink.com 1.10,2013-06-16 08:24:00,
2013-06-16 04:39:00,58.0,56.0,29.92,WNW,284,0.0,1.0,94,0.00,,,0.00,weatherlink.com 1.10,2013-06-16 08:39:00,
2013-06-16 04:54:00,57.9,56.0,29.92,WNW,284,0.0,1.0,94,0.00,,,0.00,weatherlink.com 1.10,2013-06-16 08:54:00,
2013-06-16 05:09:00,57.8,56.0,29.92,WNW,284,0.0,1.0,94,0.00,,,0.00,weatherlink.com 1.10,2013-06-16 09:09:00,
2013-06-16 05:24:00,57.7,56.0,29.92,WNW,284,0.0,1.0,93,0.00,,,0.00,weatherlink.com 1.10,2013-06-16 09:24:00,
2013-06-16 05:39:00,57.7,56.0,29.92,WNW,284,0.0,2.0,93,0.00,,,0.00,weatherlink.com 1.10,2013-06-16 09:39:00,
2013-06-16 05:54:00,58.0,56.0,29.92,WNW,284,0.0,1.0,93,0.00,,,0.00,weatherlink.com 1.10,2013-06-16 09:54:00,
2013-06-16 06:09:00,58.6,56.0,29.93,WNW,284,0.0,1.0,92,0.00,,,0.00,weatherlink.com 1.10,2013-06-16 10:09:00,
2013-06-16 06:24:00,59.4,57.0,29.93,WNW,284,0.0,0.0,90,0.00,,,0.00,weatherlink.com 1.10,2013-06-16 10:24:00,
2013-06-16 06:39:00,60.6,57.0,29.93,WNW,284,0.0,1.0,87,0.00,,,0.00,weatherlink.com 1.10,2013-06-16 10:39:00,
2013-06-16 06:54:00,61.7,57.0,29.93,WNW,284,0.0,0.0,83,0.00,,,0.00,weatherlink.com 1.10,2013-06-16 10:54:00,
2013-06-16 07:09:00,63.0,57.0,29.93,WNW,284,0.0,1.0,80,0.00,,,0.00,weatherlink.com 1.10,2013-06-16 11:09:00,
2013-06-16 07:24:00,64.2,56.0,29.93,WNW,284,0.0,0.0,75,0.00,,,0.00,weatherlink.com 1.10,2013-06-16 11:24:00,
2013-06-16 07:39:00,65.7,56.0,29.93,WNW,282,0.0,3.0,70,0.00,,,0.00,weatherlink.com 1.10,2013-06-16 11:39:00,
2013-06-16 07:54:00,67.1,55.0,29.93,NW,319,0.0,5.0,65,0.00,,,0.00,weatherlink.com 1.10,2013-06-16 11:54:00,
2013-06-16 08:09:00,68.3,55.0,29.93,WSW,253,0.0,2.0,63,0.00,,,0.00,weatherlink.com 1.10,2013-06-16 12:09:00,
2013-06-16 08:24:00,69.7,56.0,29.93,South,181,0.0,3.0,63,0.00,,,0.00,weatherlink.com 1.10,2013-06-16 12:24:00,
2013-06-16 08:39:00,71.1,55.0,29.93,SW,229,0.0,2.0,57,0.00,,,0.00,weatherlink.com 1.10,2013-06-16 12:39:00,
2013-06-16 08:54:00,72.0,55.0,29.92,WSW,256,1.0,4.0,55,0.00,,,0.00,weatherlink.com 1.10,2013-06-16 12:54:00,
2013-06-16 09:09:00,73.0,56.0,29.92,WNW,286,0.0,2.0,55,0.00,,,0.00,weatherlink.com 1.10,2013-06-16 13:09:00,
2013-06-16 09:25:00,74.2,53.0,29.92,WNW,296,0.0,6.0,48,0.00,,,0.00,weatherlink.com 1.10,2013-06-16 13:25:00,
2013-06-16 09:40:00,74.4,54.0,29.92,North,357,0.0,6.0,49,0.00,,,0.00,weatherlink.com 1.10,2013-06-16 13:40:00,
2013-06-16 09:55:00,74.3,55.0,29.92,SW,219,0.0,4.0,51,0.00,,,0.00,weatherlink.com 1.10,2013-06-16 13:55:00,
2013-06-16 10:10:00,75.0,55.0,29.91,East,100,0.0,3.0,50,0.00,,,0.00,weatherlink.com 1.10,2013-06-16 14:10:00,
2013-06-16 10:25:00,75.1,57.0,29.91,WNW,290,2.0,4.0,53,0.00,,,0.00,weatherlink.com 1.10,2013-06-16 14:25:00,
2013-06-16 10:40:00,76.3,57.0,29.91,WSW,245,1.0,4.0,52,0.00,,,0.00,weatherlink.com 1.10,2013-06-16 14:40:00,
2013-06-16 10:55:00,75.8,55.0,29.91,West,264,0.0,6.0,49,0.00,,,0.00,weatherlink.com 1.10,2013-06-16 14:55:00,
2013-06-16 11:10:00,76.4,55.0,29.91,WSW,238,6.0,7.0,48,0.00,,,0.00,weatherlink.com 1.10,2013-06-16 15:10:00,
2013-06-16 11:25:00,76.0,56.0,29.90,West,278,3.0,8.0,51,0.00,,,0.00,weatherlink.com 1.10,2013-06-16 15:25:00,
2013-06-16 11:40:00,77.0,55.0,29.89,WSW,241,0.0,6.0,46,0.00,,,0.00,weatherlink.com 1.10,2013-06-16 15:40:00,
2013-06-16 11:55:00,76.4,54.0,29.89,WSW,250,1.0,6.0,46,0.00,,,0.00,weatherlink.com 1.10,2013-06-16 15:55:00,
2013-06-16 12:10:00,75.5,54.0,29.89,WSW,242,0.0,5.0,47,0.00,,,0.00,weatherlink.com 1.10,2013-06-16 16:10:00,
2013-06-16 12:25:00,74.6,54.0,29.88,SSW,205,1.0,8.0,48,0.00,,,0.00,weatherlink.com 1.10,2013-06-16 16:25:00,
2013-06-16 12:40:00,73.9,55.0,29.88,NNW,335,0.0,8.0,51,0.00,,,0.00,weatherlink.com 1.10,2013-06-16 16:40:00,
2013-06-16 12:55:00,74.3,56.0,29.87,East,88,1.0,6.0,53,0.00,,,0.00,weatherlink.com 1.10,2013-06-16 16:55:00,
2013-06-16 13:10:00,74.2,57.0,29.87,SSW,200,0.0,5.0,55,0.00,,,0.00,weatherlink.com 1.10,2013-06-16 17:10:00,
2013-06-16 13:25:00,74.2,59.0,29.86,West,267,0.0,7.0,59,0.00,,,0.00,weatherlink.com 1.10,2013-06-16 17:25:00,
2013-06-16 13:40:00,76.1,60.0,29.85,NW,308,2.0,6.0,57,0.00,,,0.00,weatherlink.com 1.10,2013-06-16 17:40:00,
2013-06-16 13:55:00,76.6,57.0,29.85,SW,233,4.0,5.0,50,0.00,,,0.00,weatherlink.com 1.10,2013-06-16 17:55:00,
2013-06-16 14:10:00,76.0,56.0,29.85,SW,216,2.0,6.0,51,0.00,,,0.00,weatherlink.com 1.10,2013-06-16 18:10:00,
2013-06-16 14:25:00,76.6,58.0,29.84,SE,145,3.0,8.0,52,0.00,,,0.00,weatherlink.com 1.10,2013-06-16 18:25:00,
2013-06-16 14:40:00,74.3,57.0,29.83,South,191,0.0,6.0,56,0.00,,,0.00,weatherlink.com 1.10,2013-06-16 18:40:00,
2013-06-16 14:55:00,73.5,59.0,29.83,East,83,0.0,7.0,60,0.00,,,0.00,weatherlink.com 1.10,2013-06-16 18:55:00,
2013-06-16 15:10:00,73.0,59.0,29.82,NNW,340,1.0,6.0,61,0.00,,,0.00,weatherlink.com 1.10,2013-06-16 19:10:00,
2013-06-16 15:25:00,71.5,59.0,29.81,SW,235,0.0,5.0,64,0.00,,,0.00,weatherlink.com 1.10,2013-06-16 19:25:00,
2013-06-16 15:40:00,70.7,59.0,29.80,SSW,213,2.0,6.0,66,0.00,,,0.00,weatherlink.com 1.10,2013-06-16 19:40:00,
2013-06-16 15:55:00,70.3,59.0,29.80,SW,229,0.0,6.0,68,0.00,,,0.00,weatherlink.com 1.10,2013-06-16 19:55:00,
2013-06-16 16:10:00,69.9,59.0,29.80,SSW,203,1.0,5.0,68,0.00,,,0.00,weatherlink.com 1.10,2013-06-16 20:10:00,
2013-06-16 16:25:00,69.4,58.0,29.79,South,173,0.0,5.0,68,0.00,,,0.00,weatherlink.com 1.10,2013-06-16 20:25:00,
2013-06-16 16:40:00,68.7,59.0,29.79,SSW,208,2.0,9.0,71,0.00,,,0.00,weatherlink.com 1.10,2013-06-16 20:40:00,
2013-06-16 16:55:00,68.8,61.0,29.78,South,185,0.0,9.0,76,0.00,,,0.00,weatherlink.com 1.10,2013-06-16 20:55:00,
2013-06-16 17:10:00,68.8,62.0,29.78,NW,312,0.0,10.0,78,0.00,,,0.00,weatherlink.com 1.10,2013-06-16 21:10:00,
2013-06-16 17:25:00,68.9,62.0,29.77,WSW,239,3.0,11.0,79,0.00,,,0.00,weatherlink.com 1.10,2013-06-16 21:25:00,
2013-06-16 17:40:00,68.1,62.0,29.77,SW,215,2.0,7.0,81,0.00,,,0.00,weatherlink.com 1.10,2013-06-16 21:40:00,
2013-06-16 17:55:00,67.4,62.0,29.76,SE,136,3.0,10.0,82,0.00,,,0.00,weatherlink.com 1.10,2013-06-16 21:55:00,
2013-06-16 18:10:00,67.0,62.0,29.76,SW,222,1.0,8.0,83,0.00,,,0.00,weatherlink.com 1.10,2013-06-16 22:10:00,
2013-06-16 18:25:00,66.5,62.0,29.76,West,260,0.0,10.0,85,0.00,,,0.00,weatherlink.com 1.10,2013-06-16 22:25:00,
2013-06-16 18:40:00,66.0,62.0,29.76,SSW,196,4.0,9.0,86,0.00,,,0.00,weatherlink.com 1.10,2013-06-16 22:40:00,
2013-06-16 18:55:00,65.5,62.0,29.76,WNW,289,2.0,6.0,87,0.00,,,0.00,weatherlink.com 1.10,2013-06-16 22:55:00,
2013-06-16 19:10:00,65.2,62.0,29.75,NW,313,0.0,8.0,88,0.00,,,0.00,weatherlink.com 1.10,2013-06-16 23:10:00,
2013-06-16 19:25:00,64.9,61.0,29.75,SSW,199,0.0,7.0,88,0.00,,,0.00,weatherlink.com 1.10,2013-06-16 23:25:00,
2013-06-16 19:40:00,64.8,62.0,29.75,SW,220,0.0,7.0,89,0.00,,,0.00,weatherlink.com 1.10,2013-06-16 23:40:00,
2013-06-16 19:56:00,64.6,62.0,29.74,SW,220,2.0,7.0,90,0.00,,,0.00,weatherlink.com 1.10,2013-06-16 23:56:00,
2013-06-16 20:11:00,64.5,62.0,29.74,WNW,295,0.0,3.0,90,0.00,,,0.00,weatherlink.com 1.10,2013-06-17 00:11:00,
2013-06-16 20:26:00,64.5,62.0,29.74,SSW,206,0.0,3.0,91,0.00,,,0.00,weatherlink.com 1.10,2013-06-17 00:26:00,
2013-06-16 20:41:00,64.6,62.0,29.75,South,181,0.0,3.0,91,0.00,,,0.00,weatherlink.com 1.10,2013-06-17 00:41:00,
2013-06-16 20:56:00,64.6,62.0,29.75,SW,223,0.0,4.0,91,0.00,,,0.00,weatherlink.com 1.10,2013-06-17 00:56:00,
2013-06-16 21:11:00,64.5,62.0,29.75,SSW,209,0.0,2.0,91,0.00,,,0.00,weatherlink.com 1.10,2013-06-17 01:11:00,
2013-06-16 21:26:00,64.6,62.0,29.75,NW,310,0.0,1.0,91,0.00,,,0.00,weatherlink.com 1.10,2013-06-17 01:26:00,
2013-06-16 21:41:00,64.5,62.0,29.75,SSW,207,0.0,2.0,91,0.00,,,0.00,weatherlink.com 1.10,2013-06-17 01:41:00,
2013-06-16 21:56:00,64.4,62.0,29.75,SSW,193,1.0,2.0,91,0.00,,,0.00,weatherlink.com 1.10,2013-06-17 01:56:00,
2013-06-16 22:11:00,64.5,62.0,29.76,ESE,119,0.0,2.0,91,0.00,,,0.00,weatherlink.com 1.10,2013-06-17 02:11:00,
2013-06-16 22:26:00,64.7,62.0,29.76,NNW,348,0.0,0.0,91,0.00,,,0.00,weatherlink.com 1.10,2013-06-17 02:26:00,
2013-06-16 22:41:00,65.1,62.0,29.76,West,273,0.0,3.0,90,0.00,,,0.00,weatherlink.com 1.10,2013-06-17 02:41:00,
2013-06-16 22:56:00,65.6,62.0,29.76,West,273,0.0,2.0,89,0.00,,,0.00,weatherlink.com 1.10,2013-06-17 02:56:00,
2013-06-16 23:11:00,65.9,63.0,29.76,West,281,0.0,2.0,89,0.00,,,0.00,weatherlink.com 1.10,2013-06-17 03:11:00,
2013-06-16 23:26:00,65.8,63.0,29.77,West,274,0.0,2.0,89,0.00,,,0.00,weatherlink.com 1.10,2013-06-17 03:26:00,
2013-06-16 23:41:00,65.9,63.0,29.77,West,267,0.0,3.0,89,0.00,,,0.00,weatherlink.com 1.10,2013-06-17 03:41:00,
2013-06-16 23:56:00,65.8,63.0,29.77,West,268,0.0,3.0,89,0.00,,,0.00,weatherlink.com 1.10,2013-06-17 03:56:00,